createdAt,value
2018-06-13T00:01:53.579Z,5.47
2018-06-13T00:04:22.009Z,4.70
2018-06-13T00:06:50.354Z,5.10
2018-06-13T00:09:18.645Z,4.83
2018-06-13T00:11:46.926Z,4.73
2018-06-13T00:14:15.198Z,5.40
2018-06-13T00:16:43.621Z,5.33
2018-06-13T00:19:11.909Z,4.93
2018-06-13T00:21:40.249Z,4.97
2018-06-13T00:24:08.550Z,5.33
2018-06-13T00:26:36.983Z,5.43
2018-06-13T00:29:05.348Z,4.83
2018-06-13T00:31:33.674Z,5.40
2018-06-13T00:34:02.017Z,4.97
2018-06-13T00:36:30.357Z,5.47
2018-06-13T00:38:58.869Z,4.33
2018-06-13T00:41:27.129Z,4.63
2018-06-13T00:43:55.522Z,5.10
2018-06-13T00:46:23.805Z,5.30
2018-06-13T00:48:52.107Z,5.57
2018-06-13T00:51:20.410Z,5.30
2018-06-13T00:53:48.721Z,5.30
2018-06-13T00:56:29.374Z,4.80
2018-06-13T00:58:57.711Z,5.03
2018-06-13T01:01:26.052Z,4.83
2018-06-13T01:03:54.713Z,5.10
2018-06-13T01:06:23.013Z,4.27
2018-06-13T01:08:51.339Z,4.20
2018-06-13T01:11:19.652Z,4.30
2018-06-13T01:13:47.953Z,4.43
2018-06-13T01:16:16.277Z,4.87
2018-06-13T01:18:44.587Z,4.53
2018-06-13T01:21:12.957Z,4.60
2018-06-13T01:23:41.273Z,5.03
2018-06-13T01:26:09.566Z,4.13
2018-06-13T01:28:37.892Z,4.33
2018-06-13T01:31:06.418Z,4.67
2018-06-13T01:33:34.750Z,4.43
2018-06-13T01:36:03.091Z,4.50
2018-06-13T01:38:31.354Z,4.47
2018-06-13T01:40:59.645Z,4.90
2018-06-13T01:43:27.943Z,5.00
2018-06-13T01:45:56.267Z,4.70
2018-06-13T01:48:24.537Z,5.00
2018-06-13T01:50:54.906Z,5.23
2018-06-13T01:53:23.274Z,4.77
2018-06-13T01:55:51.558Z,4.83
2018-06-13T01:58:20.587Z,4.53
2018-06-13T02:00:48.917Z,5.07
2018-06-13T02:03:17.170Z,4.53
2018-06-13T02:05:45.488Z,4.57
2018-06-13T02:08:13.788Z,5.07
2018-06-13T02:10:42.148Z,4.93
2018-06-13T02:13:10.451Z,4.47
2018-06-13T02:15:38.757Z,4.57
2018-06-13T02:18:07.121Z,4.80
2018-06-13T02:20:35.403Z,4.90
2018-06-13T02:23:03.712Z,4.23
2018-06-13T02:25:32.018Z,5.00
2018-06-13T02:28:00.359Z,4.20
2018-06-13T02:30:28.649Z,5.03
2018-06-13T02:32:57.011Z,4.50
2018-06-13T02:35:25.312Z,4.13
2018-06-13T02:37:53.987Z,5.00
2018-06-13T02:40:22.288Z,4.80
2018-06-13T02:42:50.558Z,4.83
2018-06-13T02:45:18.935Z,4.40
2018-06-13T02:47:47.246Z,5.40
2018-06-13T02:50:15.569Z,4.63
2018-06-13T02:52:43.889Z,4.30
2018-06-13T02:55:12.230Z,4.40
2018-06-13T02:57:40.637Z,4.83
2018-06-13T03:00:08.944Z,4.30
2018-06-13T03:02:37.412Z,4.73
2018-06-13T03:05:05.669Z,4.27
2018-06-13T03:07:33.969Z,4.80
2018-06-13T03:10:02.322Z,4.83
2018-06-13T03:12:30.638Z,5.10
2018-06-13T03:14:59.028Z,4.67
2018-06-13T03:17:27.409Z,4.80
2018-06-13T03:19:55.721Z,4.93
2018-06-13T03:22:24.016Z,4.63
2018-06-13T03:24:52.294Z,6.20
2018-06-13T03:27:20.589Z,25.73
2018-06-13T03:29:48.911Z,5.00
2018-06-13T03:32:17.174Z,4.47
2018-06-13T03:34:45.452Z,4.57
2018-06-13T03:37:13.750Z,4.20
2018-06-13T03:39:42.065Z,4.67
2018-06-13T03:42:10.361Z,4.73
2018-06-13T03:44:38.629Z,5.13
2018-06-13T03:47:07.030Z,4.30
2018-06-13T03:49:35.285Z,5.17
2018-06-13T03:52:03.621Z,4.47
2018-06-13T03:54:31.931Z,4.67
2018-06-13T03:56:59.995Z,5.20
2018-06-13T03:59:28.270Z,4.13
2018-06-13T04:01:56.682Z,4.83
2018-06-13T04:04:24.964Z,4.57
2018-06-13T04:06:53.365Z,5.63
2018-06-13T04:09:21.622Z,5.00
2018-06-13T04:11:49.954Z,4.87
2018-06-13T04:14:18.334Z,5.13
2018-06-13T04:16:46.388Z,4.73
2018-06-13T04:19:14.716Z,4.43
2018-06-13T04:21:43.059Z,5.10
2018-06-13T04:24:11.353Z,5.17
2018-06-13T04:26:39.698Z,5.33
2018-06-13T04:29:07.987Z,4.73
2018-06-13T04:31:36.298Z,4.67
2018-06-13T04:34:04.600Z,4.93
2018-06-13T04:36:32.928Z,4.80
2018-06-13T04:39:01.221Z,5.30
2018-06-13T04:41:29.542Z,5.10
2018-06-13T04:43:58.011Z,4.30
2018-06-13T04:46:26.390Z,4.47
2018-06-13T04:48:54.677Z,4.33
2018-06-13T04:51:23.111Z,4.27
2018-06-13T04:53:51.519Z,4.70
2018-06-13T04:56:19.794Z,4.47
2018-06-13T04:58:48.119Z,5.20
2018-06-13T05:01:16.453Z,4.97
2018-06-13T05:03:44.811Z,5.40
2018-06-13T05:06:13.137Z,4.13
2018-06-13T05:08:41.529Z,4.80
2018-06-13T05:11:09.822Z,5.30
2018-06-13T05:13:38.242Z,4.33
2018-06-13T05:16:06.611Z,4.63
2018-06-13T05:18:34.993Z,5.13
2018-06-13T05:21:03.377Z,5.00
2018-06-13T05:23:31.844Z,4.87
2018-06-13T05:26:00.167Z,4.63
2018-06-13T05:28:28.747Z,4.73
2018-06-13T05:30:57.090Z,6.73
2018-06-13T05:33:25.686Z,13.47
2018-06-13T05:35:54.065Z,4.77
2018-06-13T05:38:22.429Z,5.10
2018-06-13T05:40:50.788Z,4.70
2018-06-13T05:43:19.098Z,4.70
2018-06-13T05:45:47.362Z,4.43
2018-06-13T05:48:15.664Z,4.37
2018-06-13T05:50:44.019Z,4.17
2018-06-13T05:53:12.336Z,4.30
2018-06-13T05:55:40.598Z,4.63
2018-06-13T05:58:08.933Z,4.73
2018-06-13T06:00:37.290Z,4.07
2018-06-13T06:03:05.741Z,5.57
2018-06-13T06:05:34.046Z,4.50
2018-06-13T06:08:02.366Z,5.13
2018-06-13T06:10:30.808Z,4.77
2018-06-13T06:12:59.019Z,5.90
2018-06-13T06:15:27.320Z,5.77
2018-06-13T06:17:55.593Z,5.83
2018-06-13T06:20:23.898Z,5.63
2018-06-13T06:22:52.202Z,5.87
2018-06-13T06:25:20.540Z,5.57
2018-06-13T06:27:48.851Z,5.40
2018-06-13T06:30:17.109Z,6.80
2018-06-13T06:32:45.420Z,6.57
2018-06-13T06:35:13.693Z,6.03
2018-06-13T06:37:41.973Z,6.30
2018-06-13T06:40:10.280Z,5.70
2018-06-13T06:42:38.609Z,6.27
2018-06-13T06:45:06.924Z,6.80
2018-06-13T06:47:35.269Z,7.33
2018-06-13T06:50:03.597Z,7.17
2018-06-13T06:52:31.854Z,7.07
2018-06-13T06:55:00.168Z,6.73
2018-06-13T06:57:28.429Z,7.23
2018-06-13T06:59:56.749Z,7.80
2018-06-13T07:02:25.055Z,8.77
2018-06-13T07:04:53.317Z,7.90
2018-06-13T07:07:21.591Z,7.83
2018-06-13T07:09:49.910Z,7.40
2018-06-13T07:12:18.216Z,7.57
2018-06-13T07:14:46.508Z,7.97
2018-06-13T07:17:14.842Z,6.90
2018-06-13T07:19:43.110Z,8.00
2018-06-13T07:22:11.415Z,8.23
2018-06-13T07:24:39.805Z,7.83
2018-06-13T07:27:08.106Z,9.30
2018-06-13T07:29:36.399Z,9.23
2018-06-13T07:32:04.835Z,9.60
2018-06-13T07:34:33.118Z,9.90
2018-06-13T07:37:01.430Z,10.07
2018-06-13T07:39:29.726Z,9.10
2018-06-13T07:41:58.033Z,9.03
2018-06-13T07:44:26.374Z,8.93
2018-06-13T07:46:54.679Z,9.17
2018-06-13T07:49:23.002Z,8.73
2018-06-13T07:51:51.289Z,9.00
2018-06-13T07:54:19.624Z,8.90
2018-06-13T07:56:47.887Z,7.57
2018-06-13T07:59:16.151Z,7.53
2018-06-13T08:01:44.440Z,8.60
2018-06-13T08:04:12.749Z,7.03
2018-06-13T08:06:41.037Z,7.17
2018-06-13T08:09:09.365Z,5.87
2018-06-13T08:11:37.681Z,7.33
2018-06-13T08:14:05.998Z,6.57
2018-06-13T08:16:34.275Z,6.23
2018-06-13T08:19:02.570Z,6.37
2018-06-13T08:21:30.920Z,6.30
2018-06-13T08:23:59.224Z,7.20
2018-06-13T08:26:27.526Z,6.20
2018-06-13T08:28:55.854Z,7.00
2018-06-13T08:31:24.157Z,5.90
2018-06-13T08:33:52.574Z,5.97
2018-06-13T08:36:20.920Z,5.93
2018-06-13T08:38:49.233Z,5.77
2018-06-13T08:41:17.576Z,5.50
2018-06-13T08:43:45.985Z,5.20
2018-06-13T08:46:14.297Z,5.63
2018-06-13T08:48:42.581Z,5.50
2018-06-13T08:51:10.941Z,5.30
2018-06-13T08:53:39.264Z,5.67
2018-06-13T08:56:07.613Z,5.20
2018-06-13T08:58:35.910Z,6.00
2018-06-13T09:01:04.265Z,5.40
2018-06-13T09:03:32.323Z,5.20
2018-06-13T09:06:00.653Z,5.40
2018-06-13T09:08:28.982Z,4.97
2018-06-13T09:10:57.461Z,4.87
2018-06-13T09:13:25.562Z,4.57
2018-06-13T09:15:53.909Z,4.87
2018-06-13T09:18:22.175Z,5.27
2018-06-13T09:20:50.497Z,5.43
2018-06-13T09:23:18.753Z,5.77
2018-06-13T09:25:47.080Z,4.90
2018-06-13T09:28:15.407Z,4.83
2018-06-13T09:30:43.685Z,4.90
2018-06-13T09:33:12.041Z,5.53
2018-06-13T09:35:40.462Z,5.17
2018-06-13T09:38:08.778Z,6.37
2018-06-13T09:40:37.117Z,6.03
2018-06-13T09:43:05.448Z,6.63
2018-06-13T09:45:33.762Z,6.43
2018-06-13T09:48:02.085Z,7.30
2018-06-13T09:50:30.426Z,7.13
2018-06-13T09:52:58.750Z,7.33
2018-06-13T09:55:27.046Z,7.00
2018-06-13T09:57:55.385Z,7.70
2018-06-13T10:00:29.132Z,5.70
2018-06-13T10:02:57.425Z,5.70
2018-06-13T10:05:25.706Z,5.57
2018-06-13T10:07:54.120Z,5.53
2018-06-13T10:10:22.408Z,5.60
2018-06-13T10:12:50.749Z,6.10
2018-06-13T10:15:19.042Z,6.73
2018-06-13T10:17:47.350Z,6.50
2018-06-13T10:20:15.683Z,7.10
2018-06-13T10:22:43.954Z,8.33
2018-06-13T10:25:12.302Z,6.67
2018-06-13T10:27:42.675Z,6.60
2018-06-13T10:30:10.934Z,7.57
2018-06-13T10:32:39.253Z,6.60
2018-06-13T10:35:07.614Z,6.60
2018-06-13T10:37:35.913Z,6.70
2018-06-13T10:40:04.262Z,6.17
2018-06-13T10:42:32.514Z,6.20
2018-06-13T10:45:00.857Z,6.20
2018-06-13T10:47:29.159Z,5.87
2018-06-13T10:49:57.513Z,5.70
2018-06-13T10:52:25.784Z,5.47
2018-06-13T10:54:54.101Z,6.63
2018-06-13T10:57:22.383Z,5.97
2018-06-13T10:59:50.673Z,6.17
2018-06-13T11:02:19.006Z,5.57
2018-06-13T11:04:47.376Z,5.60
2018-06-13T11:07:15.693Z,5.43
2018-06-13T11:09:43.998Z,5.87
2018-06-13T11:12:12.270Z,6.40
2018-06-13T11:14:40.602Z,6.40
2018-06-13T11:17:08.925Z,6.40
2018-06-13T11:19:37.219Z,7.30
2018-06-13T11:22:05.535Z,6.73
2018-06-13T11:24:33.823Z,7.23
2018-06-13T11:27:02.157Z,6.93
2018-06-13T11:29:30.477Z,7.53
2018-06-13T11:31:58.797Z,6.33
2018-06-13T11:34:27.117Z,6.17
2018-06-13T11:36:55.450Z,5.70
2018-06-13T11:39:23.763Z,5.23
2018-06-13T11:41:52.121Z,5.60
2018-06-13T11:44:20.450Z,5.90
2018-06-13T11:46:48.782Z,5.40
2018-06-13T11:49:17.043Z,5.40
2018-06-13T11:51:45.332Z,5.73
2018-06-13T11:54:13.620Z,5.83
2018-06-13T11:56:41.942Z,5.40
2018-06-13T11:59:10.211Z,5.93
2018-06-13T12:01:38.567Z,5.13
2018-06-13T12:04:06.889Z,5.10
2018-06-13T12:06:35.188Z,4.13
2018-06-13T12:09:04.178Z,4.83
2018-06-13T12:11:32.477Z,5.33
2018-06-13T12:14:00.802Z,4.90
2018-06-13T12:16:29.137Z,4.63
2018-06-13T12:18:57.405Z,4.67
2018-06-13T12:21:25.726Z,4.73
2018-06-13T12:23:54.002Z,4.87
2018-06-13T12:26:22.342Z,5.03
2018-06-13T12:28:50.657Z,4.47
2018-06-13T12:31:18.979Z,5.27
2018-06-13T12:33:47.269Z,5.27
2018-06-13T12:36:15.557Z,4.60
2018-06-13T12:38:43.950Z,5.40
2018-06-13T12:41:12.315Z,4.83
2018-06-13T12:43:40.638Z,5.30
2018-06-13T12:46:09.017Z,5.10
2018-06-13T12:48:37.337Z,5.70
2018-06-13T12:51:05.662Z,5.27
2018-06-13T12:53:34.018Z,5.80
2018-06-13T12:56:02.322Z,6.50
2018-06-13T12:58:30.638Z,5.63
2018-06-13T13:00:58.958Z,6.00
2018-06-13T13:03:27.317Z,5.47
2018-06-13T13:05:55.686Z,6.90
2018-06-13T13:08:24.030Z,5.53
2018-06-13T13:10:52.066Z,5.27
2018-06-13T13:13:20.335Z,5.97
2018-06-13T13:15:48.694Z,5.80
2018-06-13T13:18:17.066Z,5.70
2018-06-13T13:20:45.382Z,5.67
2018-06-13T13:23:13.765Z,5.17
2018-06-13T13:25:42.105Z,5.00
2018-06-13T13:28:10.463Z,5.47
2018-06-13T13:30:38.838Z,5.90
2018-06-13T13:33:07.173Z,5.60
2018-06-13T13:35:35.449Z,5.33
2018-06-13T13:38:03.794Z,5.50
2018-06-13T13:40:32.118Z,4.50
2018-06-13T13:43:00.201Z,4.13
2018-06-13T13:45:28.558Z,3.57
2018-06-13T13:47:56.864Z,3.53
2018-06-13T13:50:25.172Z,4.10
2018-06-13T13:52:53.855Z,3.83
2018-06-13T13:55:22.288Z,3.23
2018-06-13T13:57:50.641Z,3.40
2018-06-13T14:00:19.080Z,3.77
2018-06-13T14:02:47.358Z,3.87
2018-06-13T14:05:15.767Z,4.17
2018-06-13T14:07:44.306Z,10.20
2018-06-13T14:10:12.737Z,3.23
2018-06-13T14:12:41.062Z,3.90
2018-06-13T14:15:09.420Z,4.30
2018-06-13T14:17:37.719Z,4.00
2018-06-13T14:20:06.265Z,3.87
2018-06-13T14:22:34.636Z,3.73
2018-06-13T14:25:02.938Z,3.90
2018-06-13T14:27:31.212Z,4.17
2018-06-13T14:29:59.583Z,3.93
2018-06-13T14:32:27.569Z,3.40
2018-06-13T14:34:55.929Z,3.40
2018-06-13T14:37:24.336Z,3.40
2018-06-13T14:39:52.663Z,3.50
2018-06-13T14:42:20.978Z,4.10
2018-06-13T14:44:49.297Z,4.00
2018-06-13T14:47:17.591Z,3.20
2018-06-13T14:49:45.930Z,3.27
2018-06-13T14:52:14.228Z,3.10
2018-06-13T14:54:42.550Z,2.87
2018-06-13T14:57:10.880Z,2.50
2018-06-13T14:59:39.236Z,2.80
2018-06-13T15:02:07.575Z,2.40
2018-06-13T15:04:36.338Z,2.60
2018-06-13T15:07:06.062Z,2.80
2018-06-13T15:09:34.456Z,2.50
2018-06-13T15:12:02.798Z,2.90
2018-06-13T15:14:31.181Z,2.57
2018-06-13T15:16:59.519Z,2.67
2018-06-13T15:19:27.850Z,2.87
2018-06-13T15:21:56.275Z,3.17
2018-06-13T15:24:24.624Z,2.73
2018-06-13T15:26:52.977Z,3.27
2018-06-13T15:29:21.306Z,2.80
2018-06-13T15:31:49.644Z,2.90
2018-06-13T15:34:18.092Z,2.50
2018-06-13T15:36:46.575Z,3.00
2018-06-13T15:39:16.009Z,6.63
2018-06-13T15:41:44.962Z,4.20
2018-06-13T15:44:13.400Z,3.27
2018-06-13T15:46:41.716Z,2.93
2018-06-13T15:49:10.138Z,3.27
2018-06-13T15:51:38.483Z,2.63
2018-06-13T15:56:46.656Z,2.27
2018-06-13T15:59:14.961Z,2.53
2018-06-13T16:01:43.306Z,2.73
2018-06-13T16:04:11.589Z,2.77
2018-06-13T16:06:39.978Z,2.67
2018-06-13T16:09:09.369Z,2.63
2018-06-13T16:11:37.701Z,2.50
2018-06-13T16:14:06.041Z,2.00
2018-06-13T16:16:34.389Z,2.73
2018-06-13T16:19:02.694Z,2.30
2018-06-13T16:21:31.206Z,2.20
2018-06-13T16:23:59.569Z,2.30
2018-06-13T16:26:27.929Z,2.40
2018-06-13T16:28:56.269Z,2.40
2018-06-13T16:31:24.722Z,2.83
2018-06-13T16:33:53.042Z,2.50
2018-06-13T16:36:21.362Z,2.90
2018-06-13T16:38:49.647Z,3.03
2018-06-13T16:41:17.985Z,2.30
2018-06-13T16:43:46.270Z,2.77
2018-06-13T16:46:14.562Z,2.90
2018-06-13T16:48:42.878Z,2.70
2018-06-13T16:51:22.549Z,2.70
2018-06-13T16:54:02.286Z,3.10
2018-06-13T16:56:30.650Z,2.83
2018-06-13T16:58:58.973Z,2.60
2018-06-13T17:01:27.327Z,2.80
2018-06-13T17:03:55.694Z,2.70
2018-06-13T17:06:23.972Z,2.93
2018-06-13T17:08:52.386Z,2.70
2018-06-13T17:11:20.713Z,2.70
2018-06-13T17:13:49.037Z,2.60
2018-06-13T17:16:17.369Z,2.47
2018-06-13T17:18:45.389Z,2.67
2018-06-13T17:21:13.695Z,2.50
2018-06-13T17:23:41.949Z,2.70
2018-06-13T17:26:10.265Z,2.83
2018-06-13T17:28:38.564Z,2.60
2018-06-13T17:31:06.866Z,3.13
2018-06-13T17:33:35.176Z,2.40
2018-06-13T17:36:03.491Z,2.87
2018-06-13T17:38:31.827Z,3.50
2018-06-13T17:41:00.333Z,3.30
2018-06-13T17:43:28.661Z,2.77
2018-06-13T17:45:56.923Z,3.03
2018-06-13T17:48:25.265Z,2.67
2018-06-13T17:50:53.586Z,3.13
2018-06-13T17:53:21.973Z,3.67
2018-06-13T17:55:50.433Z,3.40
2018-06-13T17:58:18.825Z,3.23
2018-06-13T18:00:47.181Z,3.40
2018-06-13T18:03:15.634Z,2.90
2018-06-13T18:05:44.063Z,3.13
2018-06-13T18:08:12.961Z,3.60
2018-06-13T18:10:41.302Z,3.87
2018-06-13T18:13:09.703Z,3.40
2018-06-13T18:15:38.101Z,3.70
2018-06-13T18:18:06.461Z,3.33
2018-06-13T18:20:34.852Z,3.57
2018-06-13T18:23:03.130Z,4.37
2018-06-13T18:25:31.422Z,3.57
2018-06-13T18:27:59.769Z,3.77
2018-06-13T18:30:28.241Z,2.93
2018-06-13T18:32:56.605Z,3.83
2018-06-13T18:35:24.998Z,3.27
2018-06-13T18:37:53.274Z,3.30
2018-06-13T18:40:21.549Z,3.53
2018-06-13T18:42:49.826Z,3.73
2018-06-13T18:45:18.114Z,3.60
2018-06-13T18:47:46.400Z,4.03
2018-06-13T18:50:14.701Z,3.47
2018-06-13T18:52:42.977Z,3.40
2018-06-13T18:55:11.044Z,2.60
2018-06-13T18:57:39.380Z,2.77
2018-06-13T19:00:07.718Z,3.10
2018-06-13T19:02:35.977Z,3.20
2018-06-13T19:05:04.361Z,3.10
2018-06-13T19:07:32.632Z,3.00
2018-06-13T19:10:00.938Z,3.43
2018-06-13T19:12:29.222Z,3.23
2018-06-13T19:14:57.548Z,3.60
2018-06-13T19:17:25.866Z,3.33
2018-06-13T19:19:54.216Z,3.20
2018-06-13T19:22:22.540Z,3.20
2018-06-13T19:24:50.882Z,3.43
2018-06-13T19:27:19.193Z,3.30
2018-06-13T19:29:47.501Z,4.10
2018-06-13T19:32:15.851Z,4.17
2018-06-13T19:34:44.157Z,4.23
2018-06-13T19:37:12.462Z,4.33
2018-06-13T19:39:40.766Z,4.80
2018-06-13T19:42:09.077Z,5.00
2018-06-13T19:44:37.351Z,5.20
2018-06-13T19:47:11.082Z,4.47
2018-06-13T19:49:39.417Z,4.50
2018-06-13T19:52:07.716Z,4.43
2018-06-13T19:54:41.409Z,5.07
2018-06-13T19:57:09.713Z,5.10
2018-06-13T19:59:38.055Z,5.33
2018-06-13T20:02:06.342Z,5.53
2018-06-13T20:04:39.934Z,4.93
2018-06-13T20:07:08.218Z,5.00
2018-06-13T20:09:36.543Z,5.30
2018-06-13T20:12:10.077Z,4.80
2018-06-13T20:14:43.666Z,4.37
2018-06-13T20:18:16.066Z,5.33
2018-06-13T20:20:44.350Z,4.50
2018-06-13T20:23:12.614Z,4.60
2018-06-13T20:25:46.327Z,4.37
2018-06-13T20:28:20.006Z,4.10
2018-06-13T20:30:53.734Z,4.30
2018-06-13T20:33:22.053Z,4.63
2018-06-13T20:35:50.391Z,4.93
2018-06-13T20:38:18.682Z,4.70
2018-06-13T20:40:47.000Z,4.30
2018-06-13T20:43:15.342Z,3.63
2018-06-13T20:45:43.709Z,3.90
2018-06-13T20:48:12.046Z,5.07
2018-06-13T20:50:40.382Z,4.10
2018-06-13T20:53:08.700Z,4.20
2018-06-13T20:55:36.985Z,4.43
2018-06-13T20:58:05.657Z,4.33
2018-06-13T21:00:34.006Z,4.60
2018-06-13T21:03:02.513Z,4.87
2018-06-13T21:05:30.896Z,4.57
2018-06-13T21:07:59.219Z,4.17
2018-06-13T21:10:27.545Z,4.60
2018-06-13T21:12:56.626Z,4.57
2018-06-13T21:15:25.122Z,4.73
2018-06-13T21:17:53.558Z,4.60
2018-06-13T21:20:21.894Z,4.60
2018-06-13T21:22:50.117Z,4.30
2018-06-13T21:25:18.472Z,4.97
2018-06-13T21:27:46.775Z,4.57
2018-06-13T21:30:14.823Z,4.60
2018-06-13T21:32:43.112Z,4.70
2018-06-13T21:35:11.275Z,4.33
2018-06-13T21:37:39.606Z,4.43
2018-06-13T21:40:07.934Z,4.37
2018-06-13T21:42:36.190Z,4.50
2018-06-13T21:45:04.771Z,4.37
2018-06-13T21:47:33.087Z,4.97
2018-06-13T21:50:01.128Z,4.50
2018-06-13T21:52:29.538Z,4.40
2018-06-13T21:54:57.976Z,4.67
2018-06-13T21:57:26.332Z,4.77
2018-06-13T21:59:54.692Z,5.23
2018-06-13T22:02:23.069Z,4.20
2018-06-13T22:04:51.488Z,4.80
2018-06-13T22:07:19.815Z,4.77
2018-06-13T22:09:48.125Z,4.13
2018-06-13T22:12:16.565Z,4.23
2018-06-13T22:14:44.946Z,4.60
2018-06-13T22:17:13.300Z,4.67
2018-06-13T22:19:41.721Z,4.93
2018-06-13T22:22:10.085Z,4.80
2018-06-13T22:24:38.431Z,5.47
2018-06-13T22:27:06.772Z,4.90
2018-06-13T22:29:35.130Z,5.20
2018-06-13T22:32:03.519Z,4.67
2018-06-13T22:34:31.877Z,4.67
2018-06-13T22:37:00.146Z,4.77
2018-06-13T22:39:28.549Z,4.53
2018-06-13T22:41:56.818Z,4.13
2018-06-13T22:44:25.215Z,4.50
2018-06-13T22:46:53.542Z,4.67
2018-06-13T22:49:21.925Z,4.27
2018-06-13T22:51:50.318Z,5.43
2018-06-13T22:54:18.633Z,5.17
2018-06-13T22:56:46.959Z,4.47
2018-06-13T22:59:15.273Z,5.00
2018-06-13T23:01:43.562Z,4.77
2018-06-13T23:04:11.847Z,5.10
2018-06-13T23:06:40.130Z,4.60
2018-06-13T23:09:08.487Z,5.20
2018-06-13T23:11:36.822Z,4.73
2018-06-13T23:14:05.135Z,5.30
2018-06-13T23:16:33.615Z,5.07
2018-06-13T23:19:08.397Z,5.70
2018-06-13T23:21:36.709Z,5.73
2018-06-13T23:24:05.034Z,5.50
2018-06-13T23:26:33.374Z,6.17
2018-06-13T23:29:01.766Z,6.07
2018-06-13T23:31:30.113Z,5.50
2018-06-13T23:33:58.384Z,5.20
2018-06-13T23:36:26.714Z,5.27
2018-06-13T23:38:55.101Z,5.37
2018-06-13T23:41:23.418Z,5.40
2018-06-13T23:43:51.813Z,5.90
2018-06-13T23:46:20.163Z,6.90
2018-06-13T23:48:48.538Z,5.10
2018-06-13T23:51:16.838Z,5.83
2018-06-13T23:53:45.185Z,5.33
2018-06-13T23:56:13.678Z,6.07
2018-06-13T23:58:42.146Z,5.43
